Time;durP1;ratioP1;P1;durP2;ratioP2;P2;SDS_P1;SDS_P2;PMS_P1;PMS_P2;Temp;Humidity;BMP_temperature;BMP_pressure;BME280_temperature;BME280_humidity;BME280_pressure;Samples;Min_cycle;Max_cycle;Signal;HPM_P1;HPM_P2
2022/11/08 00:01:30;;;;;;;9.90;3.60;;;;;;;;;;6160709;23;20354;-90
2022/11/08 00:03:08;;;;;;;12.40;4.10;;;;;;;;;;6160641;23;20021;-93
2022/11/08 00:14:00;;;;;;;11.70;3.83;;;12.80;99.90;;;;;;6160485;23;20021;-93
2022/11/08 00:16:27;;;;;;;13.27;3.75;;;12.70;99.90;;;;;;6135750;23;20516;-91
2022/11/08 00:18:53;;;;;;;12.23;3.97;;;;;;;;;;6135798;23;20473;-93
2022/11/08 00:21:19;;;;;;;9.82;3.63;;;;;;;;;;6135674;23;20020;-93
2022/11/08 00:23:45;;;;;;;15.70;4.38;;;;;;;;;;6135734;23;20319;-93
2022/11/08 00:26:11;;;;;;;9.05;3.60;;;;;;;;;;6135844;23;20044;-91
2022/11/08 00:28:43;;;;;;;12.27;3.45;;;;;;;;;;6160008;23;20021;-93
2022/11/08 00:31:09;;;;;;;8.23;2.88;;;;;;;;;;6135543;23;20021;-83
2022/11/08 00:33:35;;;;;;;12.25;3.72;;;;;;;;;;6135449;23;20088;-84
2022/11/08 00:36:01;;;;;;;8.75;3.03;;;;;;;;;;6160044;23;20094;-86
2022/11/08 00:38:27;;;;;;;15.27;3.40;;;;;;;;;;6135690;23;20016;-87
2022/11/08 00:40:53;;;;;;;5.18;2.88;;;;;;;;;;6160098;23;20092;-85
2022/11/08 00:43:19;;;;;;;15.80;4.40;;;;;;;;;;6136695;23;20028;-87
2022/11/08 00:45:45;;;;;;;14.25;4.38;;;;;;;;;;6136533;23;20066;-92
2022/11/08 00:48:11;;;;;;;25.05;4.15;;;;;;;;;;6159989;23;20017;-91
2022/11/08 00:50:38;;;;;;;13.90;3.58;;;;;;;;;;6135388;23;20505;-87
2022/11/08 00:53:04;;;;;;;7.35;3.92;;;;;;;;;;6134984;23;20029;-87
2022/11/08 00:55:30;;;;;;;7.93;3.40;;;;;;;;;;6159843;23;20024;-85
2022/11/08 00:57:56;;;;;;;11.18;3.78;;;;;;;;;;6159887;23;20446;-87
2022/11/08 01:00:22;;;;;;;6.50;2.67;;;;;;;;;;6159375;23;20021;-87
2022/11/08 01:03:17;;;;;;;14.35;3.78;;;;;;;;;;6135253;23;20028;-87
2022/11/08 01:05:36;;;;;;;7.47;3.45;;;12.80;99.90;;;;;;6159716;23;20021;-93
2022/11/08 01:08:02;;;;;;;10.95;3.45;;;;;;;;;;6135091;23;20048;-93
2022/11/08 01:10:28;;;;;;;14.93;3.83;;;;;;;;;;6135153;23;20017;-93
2022/11/08 01:12:54;;;;;;;6.63;3.05;;;;;;;;;;6135436;23;20386;-92
2022/11/08 01:15:20;;;;;;;11.20;3.00;;;;;;;;;;6159833;23;20517;-92
2022/11/08 01:17:46;;;;;;;16.88;3.45;;;;;;;;;;6159910;23;20459;-90
2022/11/08 01:20:12;;;;;;;8.48;2.85;;;;;;;;;;6135248;23;20024;-88
2022/11/08 01:22:38;;;;;;;8.00;3.63;;;;;;;;;;6136213;23;20013;-90
2022/11/08 01:25:04;;;;;;;10.23;3.97;;;;;;;;;;6159927;23;20028;-83
2022/11/08 01:27:30;;;;;;;9.18;2.90;;;;;;;;;;6159641;23;20349;-92
2022/11/08 01:29:56;;;;;;;10.68;3.00;;;;;;;;;;6135022;23;20586;-92
2022/11/08 01:32:22;;;;;;;9.30;3.13;;;;;;;;;;6135219;23;20017;-85
2022/11/08 01:34:48;;;;;;;9.13;3.40;;;;;;;;;;6159778;23;20021;-82
2022/11/08 01:37:14;;;;;;;13.32;4.30;;;;;;;;;;6135084;23;20072;-85
2022/11/08 01:39:40;;;;;;;13.30;3.33;;;;;;;;;;6135368;23;20382;-85
2022/11/08 01:42:06;;;;;;;12.18;2.83;;;;;;;;;;6135209;23;20032;-84
2022/11/08 01:44:33;;;;;;;15.90;3.97;;;;;;;;;;6159697;23;20100;-84
2022/11/08 01:46:59;;;;;;;10.20;3.40;;;;;;;;;;6135200;23;20051;-91
2022/11/08 01:49:25;;;;;;;9.20;3.55;;;;;;;;;;6134976;23;20100;-85
2022/11/08 01:52:21;;;;;;;11.77;3.88;;;12.80;99.90;;;;;;6134358;23;20079;-88
2022/11/08 01:54:53;;;;;;;7.22;2.70;;;;;;;;;;6158731;23;20032;-89
2022/11/08 01:57:23;;;;;;;13.00;3.53;;;12.60;99.90;;;;;;6135173;23;20064;-83
2022/11/08 01:59:52;;;;;;;4.38;2.65;;;12.70;99.90;;;;;;6159635;23;20017;-86
2022/11/08 02:02:18;;;;;;;11.75;2.72;;;;;;;;;;6159287;23;20017;-85
2022/11/08 02:04:44;;;;;;;10.13;2.90;;;;;;;;;;6159399;23;20025;-86
2022/11/08 02:07:12;;;;;;;11.80;3.00;;;12.80;99.90;;;;;;6159156;23;20071;-89
2022/11/08 02:09:41;;;;;;;9.88;3.00;;;12.70;99.90;;;;;;6134613;23;20092;-84
2022/11/08 02:12:08;;;;;;;7.30;2.90;;;;;;;;;;6135677;23;20024;-86
2022/11/08 02:14:35;;;;;;;6.28;2.50;;;;;;;;;;6136543;23;20040;-86
2022/11/08 02:17:01;;;;;;;8.25;2.72;;;;;;;;;;6160833;23;20154;-83
2022/11/08 02:19:47;;;;;;;6.47;2.13;;;;;;;;;;6160838;23;20036;-86
2022/11/08 02:22:21;;;;;;;10.05;3.25;;;12.40;99.90;;;;;;6136827;23;20454;-91
2022/11/08 02:24:47;;;;;;;9.43;2.40;;;;;;;;;;6161693;23;20036;-92
2022/11/08 02:27:14;;;;;;;10.30;3.50;;;;;;;;;;6161711;23;20024;-91
2022/11/08 02:29:40;;;;;;;5.82;2.50;;;;;;;;;;6136933;23;20017;-92
2022/11/08 02:32:06;;;;;;;8.02;3.30;;;;;;;;;;6161732;23;20103;-90
2022/11/08 02:34:44;;;;;;;11.73;2.80;;;12.50;99.90;;;;;;6136801;23;20100;-91
2022/11/08 02:37:10;;;;;;;7.35;3.03;;;;;;;;;;6161280;23;20020;-90
2022/11/08 02:39:36;;;;;;;8.70;3.10;;;;;;;;;;6136564;23;20052;-90
2022/11/08 02:42:03;;;;;;;12.65;3.72;;;;;;;;;;6161341;23;20469;-87
2022/11/08 02:44:29;;;;;;;8.48;2.65;;;;;;;;;;6161329;23;20017;-87
2022/11/08 02:46:55;;;;;;;6.22;2.70;;;;;;;;;;6161255;23;20095;-92
2022/11/08 02:49:21;;;;;;;9.98;2.60;;;;;;;;;;6136407;23;20021;-86
2022/11/08 02:51:47;;;;;;;10.95;2.65;;;;;;;;;;6160922;23;20021;-88
2022/11/08 02:54:13;;;;;;;6.20;2.95;;;;;;;;;;6161037;23;20024;-89
2022/11/08 02:56:40;;;;;;;11.15;3.05;;;;;;;;;;6161217;23;20059;-86
2022/11/08 02:59:06;;;;;;;9.90;2.85;;;;;;;;;;6136460;23;20023;-91
2022/11/08 03:01:32;;;;;;;6.53;3.45;;;;;;;;;;6161113;23;20324;-92
2022/11/08 03:03:58;;;;;;;6.63;2.80;;;;;;;;;;6160928;23;20164;-90
2022/11/08 03:06:24;;;;;;;6.78;2.60;;;;;;;;;;6136299;23;20027;-92
2022/11/08 03:08:50;;;;;;;8.80;3.03;;;;;;;;;;6136712;23;20096;-86
2022/11/08 03:11:16;;;;;;;8.75;3.50;;;;;;;;;;6160969;23;20021;-86
2022/11/08 03:13:42;;;;;;;9.98;3.25;;;;;;;;;;6160980;23;20096;-90
2022/11/08 03:16:08;;;;;;;5.60;2.75;;;;;;;;;;6135832;23;20017;-85
2022/11/08 03:18:34;;;;;;;8.80;2.85;;;;;;;;;;6135760;23;20462;-85
2022/11/08 03:21:00;;;;;;;10.00;3.30;;;;;;;;;;6160589;23;20419;-92
2022/11/08 03:23:27;;;;;;;7.72;2.50;;;;;;;;;;6160199;23;20413;-93
2022/11/08 03:25:53;;;;;;;7.65;3.00;;;;;;;;;;6136608;23;20312;-89
2022/11/08 03:28:19;;;;;;;11.30;3.20;;;;;;;;;;6135525;23;20017;-86
2022/11/08 03:30:45;;;;;;;9.23;3.00;;;;;;;;;;6160305;23;20017;-85
2022/11/08 03:33:11;;;;;;;9.50;2.97;;;;;;;;;;6135504;23;20055;-85
2022/11/08 03:35:37;;;;;;;8.80;2.67;;;;;;;;;;6135400;23;20021;-87
2022/11/08 03:38:03;;;;;;;12.88;3.08;;;;;;;;;;6136044;23;20020;-89
2022/11/08 03:40:29;;;;;;;9.85;3.25;;;;;;;;;;6135985;23;20016;-92
2022/11/08 03:42:58;;;;;;;11.50;3.42;;;;;;;;;;6136087;23;20017;-88
2022/11/08 03:45:24;;;;;;;11.77;3.50;;;;;;;;;;6136069;23;20017;-91
2022/11/08 03:47:50;;;;;;;9.00;3.22;;;;;;;;;;6135843;23;20013;-90
2022/11/08 03:50:17;;;;;;;6.35;2.70;;;;;;;;;;6160571;23;20527;-85
2022/11/08 03:52:50;;;;;;;6.32;3.53;;;11.70;99.90;;;;;;6160131;23;20017;-87
2022/11/08 03:55:17;;;;;;;12.45;3.50;;;;;;;;;;6160297;23;20017;-90
2022/11/08 03:57:44;;;;;;;13.07;3.28;;;;;;;;;;6135662;23;20016;-93
2022/11/08 04:00:10;;;;;;;7.63;2.63;;;;;;;;;;6135858;23;20068;-91
2022/11/08 04:02:37;;;;;;;8.32;3.05;;;;;;;;;;6136027;23;20021;-91
2022/11/08 04:05:03;;;;;;;8.38;3.40;;;;;;;;;;6135609;23;20024;-93
2022/11/08 04:07:29;;;;;;;7.45;2.85;;;;;;;;;;6160095;23;20508;-87
2022/11/08 04:09:55;;;;;;;6.20;3.10;;;;;;;;;;6159741;23;20331;-85
2022/11/08 04:15:18;;;;;;;13.48;3.10;;;11.50;99.90;;;;;;6160106;23;20085;-89
2022/11/08 04:23:25;;;;;;;7.82;3.30;;;11.20;99.90;;;;;;6159838;23;20024;-86
2022/11/08 04:25:59;;;;;;;7.55;3.05;;;11.20;99.90;;;;;;6136095;23;20052;-86
2022/11/08 04:28:27;;;;;;;6.20;3.15;;;11.20;99.90;;;;;;6160009;23;20013;-89
2022/11/08 04:30:54;;;;;;;6.40;2.90;;;;;;;;;;6160197;23;20017;-87
2022/11/08 04:33:20;;;;;;;6.38;3.35;;;;;;;;;;6160026;23;20025;-88
2022/11/08 04:35:46;;;;;;;10.80;2.67;;;;;;;;;;6135107;23;20025;-90
2022/11/08 04:38:12;;;;;;;12.48;3.28;;;;;;;;;;6160457;23;20017;-89
2022/11/08 04:40:38;;;;;;;8.15;3.08;;;;;;;;;;6135674;23;20444;-88
2022/11/08 04:43:04;;;;;;;6.85;3.28;;;;;;;;;;6135686;23;20024;-91
2022/11/08 04:45:30;;;;;;;7.35;3.05;;;;;;;;;;6135646;23;20020;-94
2022/11/08 04:47:56;;;;;;;9.02;2.80;;;;;;;;;;6186675;23;20013;-90
2022/11/08 04:50:22;;;;;;;7.70;3.30;;;;;;;;;;6187022;23;20453;-87
2022/11/08 04:52:52;;;;;;;8.10;3.22;;;;;;;;;;6186393;23;20140;-85
2022/11/08 04:55:18;;;;;;;13.65;3.40;;;;;;;;;;6160173;23;20032;-88
2022/11/08 04:57:44;;;;;;;6.50;3.10;;;;;;;;;;6160541;23;20024;-89
2022/11/08 05:00:11;;;;;;;6.65;3.25;;;;;;;;;;6187126;23;20021;-95
2022/11/08 05:02:37;;;;;;;10.20;3.15;;;;;;;;;;6159960;23;20450;-93
2022/11/08 05:05:03;;;;;;;5.55;2.55;;;;;;;;;;6186601;23;20095;-95
2022/11/08 05:07:29;;;;;;;8.50;3.17;;;;;;;;;;6186436;23;20024;-93
2022/11/08 05:09:55;;;;;;;7.90;2.88;;;;;;;;;;6159721;23;20518;-92
2022/11/08 05:12:21;;;;;;;5.63;2.97;;;;;;;;;;6159859;23;20025;-91
2022/11/08 05:14:47;;;;;;;9.18;2.83;;;;;;;;;;6135181;23;20021;-93
2022/11/08 05:17:13;;;;;;;7.60;3.08;;;;;;;;;;6159910;23;20017;-94
2022/11/08 05:25:08;;;;;;;6.22;2.80;;;;;;;;;;6159844;23;20509;-92
2022/11/08 05:27:34;;;;;;;7.97;3.10;;;;;;;;;;6135302;23;20071;-91
2022/11/08 05:30:00;;;;;;;9.88;3.38;;;;;;;;;;6159635;23;20052;-93
2022/11/08 05:32:27;;;;;;;7.22;3.67;;;;;;;;;;6160028;23;20021;-89
2022/11/08 05:34:53;;;;;;;8.63;2.88;;;;;;;;;;6135610;23;20017;-93
2022/11/08 05:37:19;;;;;;;9.45;3.22;;;;;;;;;;6135028;23;20092;-85
2022/11/08 05:39:45;;;;;;;10.15;2.65;;;;;;;;;;6135325;23;20052;-86
2022/11/08 05:42:11;;;;;;;7.38;2.65;;;;;;;;;;6159387;23;20020;-85
2022/11/08 05:44:37;;;;;;;6.72;2.65;;;;;;;;;;6159640;23;20029;-86
2022/11/08 05:47:03;;;;;;;6.10;3.10;;;;;;;;;;6160332;23;20028;-91
2022/11/08 05:49:29;;;;;;;7.82;2.67;;;;;;;;;;6187836;23;20024;-93
2022/11/08 05:51:55;;;;;;;8.68;2.50;;;;;;;;;;6188038;23;20021;-91
2022/11/08 05:54:21;;;;;;;8.65;2.63;;;;;;;;;;6161346;23;20403;-86
2022/11/08 05:56:47;;;;;;;10.98;3.20;;;;;;;;;;6188583;23;20062;-92
2022/11/08 05:59:13;;;;;;;6.38;2.67;;;;;;;;;;6188226;23;20096;-93
2022/11/08 06:01:39;;;;;;;8.77;2.83;;;;;;;;;;6138465;23;20056;-89
2022/11/08 06:04:05;;;;;;;9.93;3.03;;;;;;;;;;6138430;23;20071;-92
2022/11/08 06:06:31;;;;;;;7.45;2.67;;;;;;;;;;6162595;23;20009;-95
2022/11/08 06:08:57;;;;;;;7.75;3.17;;;;;;;;;;6163734;23;20104;-92
2022/11/08 06:11:27;;;;;;;6.53;2.33;;;;;;;;;;6163841;23;20399;-95
2022/11/08 06:13:54;;;;;;;9.48;2.50;;;;;;;;;;6162606;23;20091;-94
2022/11/08 06:16:21;;;;;;;3.00;1.83;;;;;;;;;;6162409;23;20044;-94
2022/11/08 06:18:47;;;;;;;6.43;3.00;;;;;;;;;;6188427;23;20028;-92
2022/11/08 06:21:14;;;;;;;7.10;3.05;;;;;;;;;;6162425;23;20512;-94
2022/11/08 06:23:41;;;;;;;8.23;3.10;;;;;;;;;;6162457;23;20021;-91
2022/11/08 06:26:08;;;;;;;7.63;2.22;;;;;;;;;;6163503;23;20055;-93
2022/11/08 06:28:34;;;;;;;6.70;2.28;;;;;;;;;;6162438;23;20021;-94
2022/11/08 06:31:01;;;;;;;8.60;2.55;;;;;;;;;;6137501;23;20351;-93
2022/11/08 06:33:27;;;;;;;8.25;2.95;;;;;;;;;;6137915;23;20029;-93
2022/11/08 06:35:56;;;;;;;5.70;2.35;;;;;;;;;;6137631;23;20021;-92
2022/11/08 06:38:23;;;;;;;9.27;2.58;;;;;;;;;;6138034;23;20025;-91
2022/11/08 06:40:49;;;;;;;10.00;3.33;;;;;;;;;;6163988;23;20017;-96
2022/11/08 06:43:15;;;;;;;4.03;2.65;;;;;;;;;;6139266;23;20071;-92
2022/11/08 06:45:41;;;;;;;7.05;3.10;;;;;;;;;;6162533;23;20164;-94
2022/11/08 06:48:07;;;;;;;4.97;2.72;;;;;;;;;;6136882;23;20481;-91
2022/11/08 06:50:34;;;;;;;6.60;2.50;;;;;;;;;;6162593;23;20079;-89
2022/11/08 06:53:01;;;;;;;7.40;2.60;;;;;;;;;;6188137;23;20029;-92
2022/11/08 06:55:28;;;;;;;4.72;2.45;;;;;;;;;;6137319;23;20021;-94
2022/11/08 06:57:54;;;;;;;11.88;2.58;;;;;;;;;;6161461;23;20056;-95
2022/11/08 07:00:20;;;;;;;5.85;2.35;;;;;;;;;;6187997;23;20023;-92
2022/11/08 07:02:56;;;;;;;9.07;2.50;;;;;;;;;;6161942;23;20347;-86
2022/11/08 07:05:22;;;;;;;6.15;2.40;;;;;;;;;;6187055;23;20518;-87
2022/11/08 07:07:51;;;;;;;8.20;2.03;;;;;;;;;;6137439;23;20014;-89
2022/11/08 07:10:21;;;;;;;8.73;2.33;;;;;;;;;;6136464;23;20083;-93
2022/11/08 07:12:47;;;;;;;3.35;2.17;;;;;;;;;;6136334;23;20052;-88
2022/11/08 07:15:14;;;;;;;6.40;2.47;;;;;;;;;;6136459;23;20374;-88
2022/11/08 07:17:40;;;;;;;7.05;2.22;;;;;;;;;;6137496;23;20323;-88
2022/11/08 07:20:07;;;;;;;11.90;2.55;;;;;;;;;;6161178;23;20021;-89
2022/11/08 07:22:36;;;;;;;6.20;2.50;;;;;;;;;;6137896;23;20071;-92
2022/11/08 07:25:02;;;;;;;7.55;2.55;;;;;;;;;;6160996;23;20056;-86
2022/11/08 07:27:28;;;;;;;4.80;2.70;;;;;;;;;;6136468;23;20020;-86
2022/11/08 07:29:55;;;;;;;7.07;2.30;;;;;;;;;;6137221;23;20096;-88
2022/11/08 07:32:21;;;;;;;3.33;2.70;;;;;;;;;;6137967;23;20013;-90
2022/11/08 07:34:48;;;;;;;6.68;3.65;;;;;;;;;;6136501;23;20052;-87
2022/11/08 07:37:14;;;;;;;4.40;2.75;;;;;;;;;;6161088;23;20013;-87
2022/11/08 07:39:41;;;;;;;6.13;2.80;;;;;;;;;;6187678;23;20020;-86
2022/11/08 07:42:07;;;;;;;4.55;2.83;;;;;;;;;;6160638;23;20078;-93
2022/11/08 07:44:36;;;;;;;6.40;2.80;;;;;;;;;;6187278;23;20092;-89
2022/11/08 07:47:02;;;;;;;9.05;2.78;;;;;;;;;;6187515;23;20020;-90
2022/11/08 07:49:28;;;;;;;4.68;2.80;;;;;;;;;;6137342;23;20017;-90
2022/11/08 07:51:54;;;;;;;2.88;2.65;;;;;;;;;;6160845;23;20013;-90
2022/11/08 07:54:20;;;;;;;7.97;4.15;;;;;;;;;;6187141;23;20458;-91
2022/11/08 07:56:46;;;;;;;12.32;2.67;;;;;;;;;;6136171;23;20017;-87
2022/11/08 07:59:18;;;;;;;6.47;3.58;;;;;;;;;;6136869;23;20017;-89
2022/11/08 08:01:45;;;;;;;6.53;2.53;;;;;;;;;;6136322;23;20040;-91
2022/11/08 08:04:11;;;;;;;4.63;2.53;;;;;;;;;;6136349;23;20017;-87
2022/11/08 08:06:37;;;;;;;6.93;2.50;;;;;;;;;;6135718;23;20021;-93
2022/11/08 08:09:03;;;;;;;4.88;2.80;;;;;;;;;;6160683;23;20020;-90
2022/11/08 08:11:30;;;;;;;5.30;3.15;;;;;;;;;;6161423;23;20021;-87
2022/11/08 08:13:56;;;;;;;3.80;2.38;;;;;;;;;;6137125;23;20017;-92
2022/11/08 08:16:22;;;;;;;6.00;3.15;;;;;;;;;;6186939;23;20383;-88
2022/11/08 08:18:49;;;;;;;8.40;3.10;;;;;;;;;;6187019;23;20009;-89
2022/11/08 08:21:15;;;;;;;9.65;2.72;;;;;;;;;;6187407;23;20390;-88
2022/11/08 08:23:41;;;;;;;8.73;3.13;;;;;;;;;;6160473;23;20043;-88
2022/11/08 08:26:08;;;;;;;7.07;2.97;;;;;;;;;;6136089;23;20079;-88
2022/11/08 08:28:36;;;;;;;3.38;2.35;;;;;;;;;;6160877;23;20017;-93
2022/11/08 08:31:05;;;;;;;6.05;2.45;;;;;;;;;;6136161;23;20021;-87
2022/11/08 08:33:32;;;;;;;4.90;2.80;;;;;;;;;;6160450;23;20032;-88
2022/11/08 08:36:00;;;;;;;2.97;2.28;;;;;;;;;;6186230;23;20364;-90
2022/11/08 08:38:26;;;;;;;6.07;2.75;;;;;;;;;;6135690;23;20477;-90
2022/11/08 08:40:52;;;;;;;4.07;2.38;;;;;;;;;;6135840;23;20141;-90
2022/11/08 08:43:19;;;;;;;3.75;3.08;;;;;;;;;;6187044;23;20438;-87
2022/11/08 08:45:45;;;;;;;9.93;4.35;;;;;;;;;;6186269;23;20015;-90
2022/11/08 08:48:14;;;;;;;5.53;2.33;;;;;;;;;;6160003;23;20060;-88
2022/11/08 08:50:40;;;;;;;6.60;2.92;;;;;;;;;;6186546;23;20017;-88
2022/11/08 08:53:06;;;;;;;9.00;3.17;;;;;;;;;;6135306;23;20013;-88
2022/11/08 08:55:36;;;;;;;4.90;2.40;;;;;;;;;;6136497;23;20021;-87
2022/11/08 08:58:02;;;;;;;5.13;2.60;;;;;;;;;;6160482;23;20382;-89
2022/11/08 09:00:28;;;;;;;5.82;2.63;;;;;;;;;;6136091;23;20066;-89
2022/11/08 09:02:54;;;;;;;6.22;2.33;;;;;;;;;;6186481;23;20311;-89
2022/11/08 09:05:20;;;;;;;3.75;2.42;;;;;;;;;;6159828;23;20481;-88
2022/11/08 09:07:46;;;;;;;5.38;2.47;;;;;;;;;;6136055;23;20013;-88
2022/11/08 09:10:12;;;;;;;6.38;2.22;;;;;;;;;;6160904;23;20454;-88
2022/11/08 09:12:39;;;;;;;5.80;2.78;;;;;;;;;;6135386;23;20017;-91
2022/11/08 09:15:05;;;;;;;2.95;2.47;;;;;;;;;;6160533;23;20017;-91
2022/11/08 09:17:34;;;;;;;3.08;2.30;;;;;;;;;;6135387;23;20024;-90
2022/11/08 09:20:00;;;;;;;7.43;2.95;;;;;;;;;;6136708;23;20091;-89
2022/11/08 09:22:26;;;;;;;8.48;2.80;;;;;;;;;;6161749;23;20017;-91
2022/11/08 09:24:52;;;;;;;3.72;2.30;;;;;;;;;;6161846;23;20454;-87
2022/11/08 09:27:18;;;;;;;3.58;2.38;;;;;;;;;;6137575;23;20048;-91
2022/11/08 09:29:44;;;;;;;3.60;2.65;;;;;;;;;;6188228;23;20025;-89
2022/11/08 09:32:10;;;;;;;5.47;2.70;;;;;;;;;;6161848;23;20543;-87
2022/11/08 09:34:37;;;;;;;7.20;3.20;;;;;;;;;;6136838;23;20476;-86
2022/11/08 09:37:03;;;;;;;6.63;2.50;;;;;;;;;;6161660;23;20013;-86
2022/11/08 09:39:29;;;;;;;5.07;2.33;;;;;;;;;;6137352;23;20324;-87
2022/11/08 09:42:14;;;;;;;3.85;2.22;;;;;;;;;;6162447;23;20059;-90
2022/11/08 09:44:50;;;;;;;5.00;1.80;;;;;;;;;;6162476;23;20032;-91
2022/11/08 09:47:16;;;;;;;5.10;2.58;;;;;;;;;;6136947;23;20446;-92
2022/11/08 09:49:46;;;;;;;7.72;2.17;;;;;;;;;;6189236;23;20017;-89
2022/11/08 09:52:16;;;;;;;7.18;2.92;;;;;;;;;;6137396;23;20461;-92
2022/11/08 09:54:43;;;;;;;3.90;2.10;;;;;;;;;;6162213;23;20068;-87
2022/11/08 09:57:19;;;;;;;4.78;2.60;;;;;;;;;;6161848;23;20017;-91
2022/11/08 09:59:48;;;;;;;4.30;2.63;;;;;;;;;;6162472;23;20430;-90
2022/11/08 10:02:22;;;;;;;4.15;2.20;;;;;;;;;;6161965;23;20024;-91
2022/11/08 10:05:16;;;;;;;2.60;2.20;;;12.80;99.90;;;;;;6138130;23;20095;-90
2022/11/08 10:07:42;;;;;;;3.75;2.08;;;;;;;;;;6158159;23;20024;-91
2022/11/08 10:10:27;;;;;;;2.38;1.70;;;;;;;;;;6162183;23;20462;-91
2022/11/08 10:13:21;;;;;;;4.07;2.17;;;12.90;99.90;;;;;;6162695;23;20469;-93
2022/11/08 10:15:53;;;;;;;5.05;1.98;;;;;;;;;;6137491;23;20052;-92
2022/11/08 10:18:39;;;;;;;3.50;2.08;;;13.10;99.90;;;;;;6161859;23;20025;-92
2022/11/08 10:21:24;;;;;;;3.67;1.80;;;;;;;;;;6161922;23;20397;-89
2022/11/08 10:23:57;;;;;;;7.43;1.95;;;;;;;;;;6188080;23;20020;-93
2022/11/08 10:26:34;;;;;;;4.95;2.05;;;12.90;99.90;;;;;;6137074;23;20016;-91
2022/11/08 10:29:05;;;;;;;4.10;2.30;;;;;;;;;;6161511;23;20021;-90
2022/11/08 10:31:32;;;;;;;3.53;2.15;;;;;;;;;;6137043;23;20355;-90
2022/11/08 10:34:03;;;;;;;4.32;2.00;;;;;;;;;;6188172;23;20080;-91
2022/11/08 10:36:40;;;;;;;2.75;2.55;;;;;;;;;;6185759;23;20091;-88
2022/11/08 10:39:09;;;;;;;3.22;1.77;;;;;;;;;;6136375;23;20016;-87
2022/11/08 10:41:41;;;;;;;6.35;2.28;;;;;;;;;;6136664;23;20048;-89
2022/11/08 10:44:22;;;;;;;2.95;1.90;;;;;;;;;;6136611;23;20017;-90
2022/11/08 10:46:49;;;;;;;4.53;2.33;;;;;;;;;;6161941;23;20028;-93
2022/11/08 10:49:36;;;;;;;3.10;1.90;;;;;;;;;;6162633;23;20056;-93
2022/11/08 10:52:11;;;;;;;5.00;2.00;;;;;;;;;;6136693;23;20068;-92
2022/11/08 10:54:47;;;;;;;4.07;1.90;;;;;;;;;;6161965;23;20020;-91
2022/11/08 10:57:24;;;;;;;3.20;2.15;;;;;;;;;;6161477;23;20012;-92
2022/11/08 10:59:51;;;;;;;2.70;1.90;;;;;;;;;;6162924;23;20013;-91
2022/11/08 11:02:20;;;;;;;3.22;1.77;;;13.30;99.90;;;;;;6188645;23;20016;-91
2022/11/08 11:04:46;;;;;;;3.33;2.00;;;;;;;;;;6137520;23;20013;-93
2022/11/08 11:07:26;;;;;;;7.63;2.05;;;;;;;;;;6187539;23;20024;-92
2022/11/08 11:09:55;;;;;;;2.53;1.63;;;;;;;;;;6188193;23;20048;-91
2022/11/08 11:12:23;;;;;;;3.20;1.92;;;;;;;;;;6137409;23;20017;-89
2022/11/08 11:14:56;;;;;;;6.40;2.17;;;;;;;;;;6187716;23;20071;-90
2022/11/08 11:17:24;;;;;;;3.63;1.98;;;;;;;;;;6136888;23;20017;-88
2022/11/08 11:19:54;;;;;;;3.95;2.17;;;;;;;;;;6160879;23;20327;-88
2022/11/08 11:22:38;;;;;;;2.35;1.70;;;;;;;;;;6187106;23;20350;-87
2022/11/08 11:25:06;;;;;;;2.17;1.80;;;;;;;;;;6137665;23;20013;-86
2022/11/08 11:27:36;;;;;;;1.90;1.70;;;;;;;;;;6187354;23;20106;-86
2022/11/08 11:30:16;;;;;;;3.05;1.85;;;;;;;;;;6160701;23;20017;-88
2022/11/08 11:32:53;;;;;;;1.65;1.42;;;;;;;;;;6135765;23;20048;-86
2022/11/08 11:35:19;;;;;;;5.22;2.17;;;;;;;;;;6160327;23;20021;-89
2022/11/08 11:37:47;;;;;;;3.80;2.22;;;;;;;;;;6160294;23;20021;-87
2022/11/08 11:40:13;;;;;;;1.58;1.48;;;;;;;;;;6135694;23;20059;-91
2022/11/08 11:42:45;;;;;;;5.55;1.98;;;;;;;;;;6160350;23;20446;-88
2022/11/08 11:45:11;;;;;;;3.70;2.53;;;;;;;;;;6136153;23;20021;-88
2022/11/08 11:48:00;;;;;;;16.00;3.38;;;13.80;99.90;;;;;;6160598;23;20425;-88
2022/11/08 11:50:39;;;;;;;3.60;1.95;;;;;;;;;;6161421;23;20072;-87
2022/11/08 11:53:17;;;;;;;3.85;1.90;;;;;;;;;;6136977;23;20452;-87
2022/11/08 11:56:01;;;;;;;3.33;1.60;;;;;;;;;;6136073;23;20476;-86
2022/11/08 11:58:40;;;;;;;5.22;2.25;;;;;;;;;;6162354;23;20056;-84
2022/11/08 12:01:50;;;;;;;3.10;1.83;;;14.00;99.90;;;;;;6139137;23;20017;-87
2022/11/08 12:04:36;;;;;;;3.20;1.92;;;;;;;;;;6045353;23;20030;-88
2022/11/08 12:07:28;;;;;;;3.83;1.95;;;;;;;;;;6045726;23;20019;-86
2022/11/08 12:09:54;;;;;;;4.97;1.83;;;;;;;;;;6039613;23;20096;-88
2022/11/08 12:12:28;;;;;;;1.90;1.67;;;;;;;;;;6019581;23;20487;-85
2022/11/08 12:15:01;;;;;;;2.88;1.92;;;;;;;;;;6019988;23;20073;-90
2022/11/08 12:17:48;;;;;;;6.63;1.80;;;;;;;;;;6019563;23;20031;-85
2022/11/08 12:20:34;;;;;;;3.65;2.03;;;;;;;;;;6019685;23;20334;-86
2022/11/08 12:23:00;;;;;;;5.68;2.35;;;;;;;;;;6020487;23;20314;-87
2022/11/08 12:25:45;;;;;;;4.38;1.98;;;14.20;99.90;;;;;;6019504;23;20030;-88
2022/11/08 12:28:23;;;;;;;1.98;1.73;;;;;;;;;;6043301;23;20023;-89
2022/11/08 12:30:49;;;;;;;3.15;1.90;;;;;;;;;;6043196;23;20018;-88
2022/11/08 12:33:21;;;;;;;6.35;1.95;;;;;;;;;;6020419;23;20015;-87
2022/11/08 12:35:58;;;;;;;3.50;1.90;;;;;;;;;;6120237;23;20509;-88
2022/11/08 12:38:44;;;;;;;4.68;1.88;;;;;;;;;;6136270;23;20020;-88
2022/11/08 12:41:39;;;;;;;5.93;2.05;;;;;;;;;;6161248;23;20027;-88
2022/11/08 12:44:05;;;;;;;4.28;1.65;;;;;;;;;;6182155;23;20025;-93
2022/11/08 12:46:58;;;;;;;4.10;1.80;;;;;;;;;;6160351;23;20021;-90
2022/11/08 12:49:36;;;;;;;4.22;1.88;;;;;;;;;;6092899;23;20328;-92
2022/11/08 12:52:19;;;;;;;2.03;1.80;;;;;;;;;;6135888;23;20017;-90
2022/11/08 12:54:48;;;;;;;2.80;1.70;;;;;;;;;;6136002;23;20021;-87
2022/11/08 12:57:15;;;;;;;4.97;1.70;;;;;;;;;;6185644;23;20017;-87
2022/11/08 12:59:47;;;;;;;2.42;1.70;;;;;;;;;;6160436;23;20107;-86
2022/11/08 13:02:21;;;;;;;2.65;1.90;;;;;;;;;;6136835;23;20096;-85
2022/11/08 13:04:56;;;;;;;;;;;14.40;99.90;;;;;;6160636;23;20017;-85
2022/11/08 13:07:46;;;;;;;2.20;1.83;;;14.40;99.90;;;;;;6187251;23;19923;-85
2022/11/08 13:10:18;;;;;;;3.05;1.70;;;;;;;;;;6186217;23;20017;-85
2022/11/08 13:12:55;;;;;;;4.72;1.80;;;;;;;;;;6186800;23;20021;-88
2022/11/08 13:15:24;;;;;;;2.78;1.52;;;;;;;;;;6135908;23;20017;-87
2022/11/08 13:18:11;;;;;;;4.45;1.88;;;;;;;;;;6135529;23;20017;-85
2022/11/08 13:20:42;;;;;;;4.68;1.95;;;;;;;;;;6186300;23;20017;-88
2022/11/08 13:23:40;;;;;;;3.30;1.67;;;;;;;;;;6136692;23;20021;-90
2022/11/08 13:26:20;;;;;;;3.47;1.48;;;;;;;;;;6066659;23;20472;-88
2022/11/08 13:28:46;;;;;;;3.85;1.55;;;;;;;;;;6042618;23;20026;-85
2022/11/08 13:31:24;;;;;;;3.25;1.70;;;;;;;;;;6018788;23;20082;-88
2022/11/08 13:34:02;;;;;;;3.50;1.73;;;;;;;;;;6066208;23;20053;-87
2022/11/08 13:36:36;;;;;;;4.93;1.70;;;;;;;;;;6066583;23;20073;-86
2022/11/08 13:39:21;;;;;;;2.10;1.60;;;;;;;;;;6042666;23;20078;-88
2022/11/08 13:42:14;;;;;;;4.15;2.03;;;14.60;99.90;;;;;;6066534;23;20027;-87
2022/11/08 13:44:56;;;;;;;4.45;1.98;;;;;;;;;;6018238;23;20015;-90
2022/11/08 13:47:35;;;;;;;3.97;1.92;;;;;;;;;;6042458;23;20091;-89
2022/11/08 13:50:20;;;;;;;4.18;2.00;;;;;;;;;;6042345;23;20029;-87
2022/11/08 13:53:20;;;;;;;3.40;1.35;;;14.60;99.90;;;;;;6067197;23;20023;-90
2022/11/08 13:55:50;;;;;;;3.45;1.85;;;14.70;99.90;;;;;;6042433;23;20026;-86
2022/11/08 13:58:34;;;;;;;4.80;2.17;;;14.50;99.90;;;;;;6042238;23;20050;-90
2022/11/08 14:01:02;;;;;;;2.28;1.38;;;14.60;99.90;;;;;;6069093;23;20024;-90
2022/11/08 14:03:32;;;;;;;3.70;1.92;;;;;;;;;;6161165;23;20017;-87
2022/11/08 14:06:04;;;;;;;4.65;2.05;;;;;;;;;;6135345;23;20071;-91
2022/11/08 14:08:41;;;;;;;2.65;1.70;;;;;;;;;;6160739;23;20452;-91
2022/11/08 14:11:07;;;;;;;2.78;1.63;;;;;;;;;;6137648;23;20027;-89
2022/11/08 14:14:22;;;;;;;6.93;2.00;;;14.50;99.90;;;;;;6137249;23;20013;-92
2022/11/08 14:16:48;;;;;;;;;;;14.60;99.90;;;;;;6049782;23;20022;-85
2022/11/08 14:19:21;;;;;;;4.20;1.48;;;;;;;;;;6072832;23;19957;-85
2022/11/08 14:21:49;;;;;;;6.38;1.83;;;;;;;;;;6072867;23;20452;-88
2022/11/08 14:24:21;;;;;;;2.85;1.55;;;14.20;99.90;;;;;;6049836;23;20022;-92
2022/11/08 14:26:47;;;;;;;3.80;1.88;;;;;;;;;;6097026;23;20015;-89
2022/11/08 14:29:18;;;;;;;5.13;1.60;;;;;;;;;;6073253;23;20030;-91
2022/11/08 14:31:44;;;;;;;8.48;3.08;;;;;;;;;;6049125;23;20487;-92
2022/11/08 14:34:30;;;;;;;3.50;1.83;;;;;;;;;;6049349;23;20025;-92
2022/11/08 14:37:00;;;;;;;5.00;1.88;;;;;;;;;;6096751;23;20023;-90
2022/11/08 14:39:35;;;;;;;6.90;1.80;;;;;;;;;;6072917;23;20476;-93
2022/11/08 14:42:03;;;;;;;3.17;1.73;;;;;;;;;;6048954;23;20516;-91
2022/11/08 14:44:30;;;;;;;4.30;1.80;;;;;;;;;;6097261;23;20022;-93
2022/11/08 14:46:57;;;;;;;2.05;1.67;;;;;;;;;;6073704;23;20014;-91
2022/11/08 14:49:34;;;;;;;4.78;1.80;;;;;;;;;;6097398;23;20045;-91
2022/11/08 14:52:04;;;;;;;8.38;2.20;;;;;;;;;;6074290;23;20090;-91
2022/11/08 14:54:39;;;;;;;7.25;2.30;;;;;;;;;;6136093;23;20092;-93
2022/11/08 14:57:25;;;;;;;2.60;1.80;;;;;;;;;;6138504;23;20100;-92
2022/11/08 14:59:54;;;;;;;2.50;1.60;;;;;;;;;;6136790;23;20059;-92
2022/11/08 15:02:20;;;;;;;5.07;1.60;;;;;;;;;;6162483;23;20056;-92
2022/11/08 15:04:47;;;;;;;5.43;2.72;;;;;;;;;;6138437;23;20028;-90
2022/11/08 15:07:16;;;;;;;3.28;1.80;;;;;;;;;;6161437;23;20071;-89